createdAt,value
2023-05-24T17:22:31.478Z,12.10
2023-05-24T17:25:01.096Z,12.32
2023-05-24T17:27:30.976Z,13.32
2023-05-24T17:30:00.699Z,11.18
2023-05-24T17:32:31.653Z,10.88
2023-05-24T17:35:01.649Z,11.38
2023-05-24T17:37:33.133Z,10.27
2023-05-24T17:40:04.077Z,10.88
2023-05-24T17:42:34.070Z,12.82
2023-05-24T17:45:05.098Z,13.10
2023-05-24T17:47:35.400Z,10.55
2023-05-24T17:50:05.761Z,12.85
2023-05-24T17:52:37.078Z,11.23
2023-05-24T17:55:08.014Z,10.75
2023-05-24T17:57:37.978Z,11.07
2023-05-24T18:00:09.334Z,13.23
2023-05-24T18:02:48.711Z,11.25
2023-05-24T18:05:19.320Z,12.32
2023-05-24T18:07:50.854Z,11.13
2023-05-24T18:10:21.085Z,11.32
2023-05-24T18:12:50.949Z,11.13
2023-05-24T18:15:21.537Z,10.85
2023-05-24T18:17:51.828Z,11.32
2023-05-24T18:20:24.562Z,11.48
2023-05-24T18:22:56.222Z,11.07
2023-05-24T18:25:26.139Z,14.38
2023-05-24T18:27:56.112Z,10.55
2023-05-24T18:30:26.690Z,13.55
2023-05-24T18:33:07.165Z,12.23
2023-05-24T18:35:38.628Z,11.45
2023-05-24T18:38:10.198Z,11.52
2023-05-24T18:40:40.208Z,11.15
2023-05-24T18:43:10.188Z,12.15
2023-05-24T18:45:40.407Z,12.50
2023-05-24T18:48:10.605Z,13.50
2023-05-24T18:50:40.869Z,11.85
2023-05-24T18:53:12.872Z,13.57
2023-05-24T18:55:43.231Z,12.75
2023-05-24T18:58:13.405Z,14.10
2023-05-24T19:00:43.379Z,11.95
2023-05-24T19:03:13.806Z,12.43
2023-05-24T19:05:44.435Z,11.35
2023-05-24T19:08:15.835Z,11.93
2023-05-24T19:10:45.840Z,12.20
2023-05-24T19:13:16.347Z,11.50
2023-05-24T19:15:46.468Z,12.63
2023-05-24T19:18:16.448Z,13.02
2023-05-24T19:20:46.356Z,12.10
2023-05-24T19:23:17.909Z,12.60
2023-05-24T19:25:50.558Z,13.45
2023-05-24T19:28:20.772Z,13.27
2023-05-24T19:30:50.690Z,11.93
2023-05-24T19:33:20.611Z,13.20
2023-05-24T19:35:53.859Z,13.82
2023-05-24T19:38:26.613Z,12.27
2023-05-24T19:40:58.166Z,12.88
2023-05-24T19:43:32.760Z,13.60
2023-05-24T19:46:06.178Z,12.52
2023-05-24T19:48:38.802Z,12.77
2023-05-24T19:51:09.601Z,11.98
2023-05-24T19:53:42.365Z,12.10
2023-05-24T19:56:12.861Z,13.03
2023-05-24T19:58:44.287Z,12.77
2023-05-24T20:01:14.895Z,14.80
2023-05-24T20:03:48.975Z,12.30
2023-05-24T20:06:19.690Z,13.77
2023-05-24T20:08:51.106Z,13.40
2023-05-24T20:11:20.667Z,13.40
2023-05-24T20:13:52.791Z,14.17
2023-05-24T20:16:23.328Z,13.40
2023-05-24T20:18:52.809Z,13.83
2023-05-24T20:21:22.143Z,13.87
2023-05-24T20:23:57.961Z,13.33
2023-05-24T20:26:28.365Z,13.23
2023-05-24T20:28:57.901Z,13.30
2023-05-24T20:31:28.081Z,14.23
2023-05-24T20:33:57.728Z,13.33
2023-05-24T20:36:27.055Z,14.43
2023-05-24T20:38:57.772Z,14.10
2023-05-24T20:41:30.639Z,14.23
2023-05-24T20:43:59.938Z,13.87
2023-05-24T20:46:29.445Z,14.40
2023-05-24T20:48:58.901Z,14.13
2023-05-24T20:51:28.446Z,14.03
2023-05-24T20:53:59.167Z,15.83
2023-05-24T20:56:28.409Z,17.83
2023-05-24T20:59:02.482Z,16.47
2023-05-24T21:01:31.774Z,16.37
2023-05-24T21:04:01.527Z,15.00
2023-05-24T21:06:34.166Z,14.93
2023-05-24T21:09:05.081Z,15.07
2023-05-24T21:11:34.543Z,15.43
2023-05-24T21:14:03.876Z,15.70
2023-05-24T21:16:33.574Z,15.00
2023-05-24T21:19:02.978Z,15.40
2023-05-24T21:21:32.205Z,14.13
2023-05-24T21:24:01.724Z,15.13
2023-05-24T21:26:33.022Z,14.83
2023-05-24T21:29:02.506Z,15.30
2023-05-24T21:31:32.256Z,15.13
2023-05-24T21:34:01.493Z,15.17
2023-05-24T21:36:30.905Z,16.20
2023-05-24T21:39:00.784Z,15.60
2023-05-24T21:41:31.685Z,15.67
2023-05-24T21:44:00.898Z,15.53
2023-05-24T21:46:30.579Z,15.93
2023-05-24T21:48:59.864Z,14.97
2023-05-24T21:51:29.269Z,14.97
2023-05-24T21:53:58.653Z,15.87
2023-05-24T21:56:28.488Z,14.50
2023-05-24T21:58:59.256Z,15.60
2023-05-24T22:01:29.153Z,15.80
2023-05-24T22:03:58.573Z,15.87
2023-05-24T22:06:27.852Z,15.77
2023-05-24T22:09:01.939Z,16.23
2023-05-24T22:11:31.601Z,15.53
2023-05-24T22:14:02.620Z,18.10
2023-05-24T22:16:31.856Z,16.60
2023-05-24T22:19:01.479Z,18.07
2023-05-24T22:21:33.535Z,17.93
2023-05-24T22:24:02.730Z,19.57
2023-05-24T22:26:31.985Z,17.23
2023-05-24T22:29:04.120Z,18.77
2023-05-24T22:31:34.885Z,19.53
2023-05-24T22:34:04.116Z,20.03
2023-05-24T22:36:34.459Z,17.13
2023-05-24T22:39:03.954Z,17.27
2023-05-24T22:41:33.437Z,18.90
2023-05-24T22:44:04.056Z,17.80
2023-05-24T22:46:33.385Z,18.87
2023-05-24T22:49:03.292Z,17.77
2023-05-24T22:51:32.484Z,17.70
2023-05-24T22:54:01.791Z,20.17
2023-05-24T22:56:32.485Z,18.73
2023-05-24T22:59:01.683Z,19.67
2023-05-24T23:01:32.529Z,18.90
2023-05-24T23:04:11.490Z,17.67
2023-05-24T23:06:47.849Z,18.47
2023-05-24T23:09:17.889Z,17.87
2023-05-24T23:11:47.250Z,18.53
2023-05-24T23:14:17.270Z,19.67
2023-05-24T23:16:48.024Z,19.83
2023-05-24T23:19:18.882Z,18.50
2023-05-24T23:21:48.458Z,19.07
2023-05-24T23:24:17.834Z,18.83
2023-05-24T23:26:47.097Z,19.93
2023-05-24T23:29:16.416Z,20.37
2023-05-24T23:31:47.441Z,19.60
2023-05-24T23:34:16.746Z,19.60
2023-05-24T23:36:46.065Z,19.77
2023-05-24T23:39:15.303Z,21.20
2023-05-24T23:41:44.597Z,22.67
2023-05-24T23:44:14.195Z,20.83
2023-05-24T23:46:43.592Z,19.47
2023-05-24T23:49:14.284Z,23.23
2023-05-24T23:51:43.463Z,21.50
2023-05-24T23:54:14.886Z,20.87
2023-05-24T23:56:44.178Z,20.47
2023-05-24T23:59:13.536Z,23.67
